Time;durP1;ratioP1;P1;durP2;ratioP2;P2;SDS_P1;SDS_P2;PMS_P1;PMS_P2;Temp;Humidity;BMP_temperature;BMP_pressure;BME280_temperature;BME280_humidity;BME280_pressure;Samples;Min_cycle;Max_cycle;Signal;HPM_P1;HPM_P2
2021/11/01 00:00:40;;;;;;;10.02;9.02;;;;;;;;;;5034630;28;20191;-48
2021/11/01 00:03:06;;;;;;;9.73;8.65;;;;;;;;;;5034705;28;20210;-48
2021/11/01 00:05:33;;;;;;;8.98;8.18;;;;;;;;;;5026066;28;20262;-48
2021/11/01 00:07:59;;;;;;;9.77;8.77;;;;;;;;;;5035370;28;20445;-48
2021/11/01 00:10:25;;;;;;;9.35;8.45;;;;;;;;;;5030164;28;20241;-48
2021/11/01 00:12:51;;;;;;;9.95;8.95;;;;;;;;;;5029575;28;20177;-48
2021/11/01 00:15:17;;;;;;;9.45;8.30;;;;;;;;;;5034685;28;20175;-48
2021/11/01 00:17:43;;;;;;;9.90;8.50;;;;;;;;;;5035226;28;20230;-48
2021/11/01 00:20:10;;;;;;;9.18;8.20;;;;;;;;;;5029683;28;20257;-48
2021/11/01 00:22:36;;;;;;;9.43;8.30;;;;;;;;;;5035019;28;20605;-48
2021/11/01 00:25:04;;;;;;;9.10;8.20;;;;;;;;;;5033533;28;20194;-48
2021/11/01 00:27:30;;;;;;;9.30;8.27;;;;;;;;;;5030045;28;20188;-48
2021/11/01 00:29:56;;;;;;;9.55;8.55;;;;;;;;;;5023454;28;20283;-48
2021/11/01 00:32:22;;;;;;;9.48;8.48;;;;;;;;;;5034974;28;20172;-48
2021/11/01 00:34:48;;;;;;;10.00;8.32;;;;;;;;;;5033378;28;20187;-48
2021/11/01 00:37:14;;;;;;;9.02;8.05;;;;;;;;;;5033685;28;20184;-48
2021/11/01 00:39:40;;;;;;;9.30;8.40;;;;;;;;;;5034570;28;20184;-48
2021/11/01 00:42:06;;;;;;;9.70;8.70;;;;;;;;;;5030536;28;20424;-48
2021/11/01 00:44:32;;;;;;;9.70;8.55;;;;;;;;;;5020682;28;20192;-48
2021/11/01 00:46:59;;;;;;;9.38;8.38;;;;;;;;;;5034515;28;20279;-48
2021/11/01 00:49:27;;;;;;;9.38;8.38;;;;;;;;;;5033876;28;20282;-48
2021/11/01 00:51:54;;;;;;;9.13;8.23;;;;;;;;;;5033551;28;20180;-48
2021/11/01 00:54:21;;;;;;;8.77;7.88;;;;;;;;;;5034113;28;20179;-48
2021/11/01 00:56:47;;;;;;;8.60;7.80;;;;;;;;;;5034128;28;20176;-48
2021/11/01 00:59:13;;;;;;;8.95;8.05;;;;;;;;;;5027374;28;20187;-48
2021/11/01 01:01:40;;;;;;;9.77;8.65;;;;;;;;;;5031330;28;20982;-48
2021/11/01 01:04:06;;;;;;;9.98;8.80;;;;;;;;;;5023028;28;20245;-48
2021/11/01 01:06:32;;;;;;;8.85;7.95;;;;;;;;;;5026786;28;20214;-48
2021/11/01 01:08:58;;;;;;;9.70;8.15;;;;;;;;;;5034514;28;20450;-48
2021/11/01 01:11:24;;;;;;;9.68;8.38;;;;;;;;;;5034127;28;20175;-48
2021/11/01 01:13:52;;;;;;;8.88;7.97;;;;;;;;;;5033785;28;20468;-48
2021/11/01 01:18:44;;;;;;;9.40;8.15;;;;;;;;;;5033683;28;20179;-48
2021/11/01 01:23:56;;;;;;;10.00;8.48;;;;;;;;;;5025044;28;20230;-48
2021/11/01 01:26:22;;;;;;;9.30;8.40;;;;;;;;;;5028816;28;20175;-48
2021/11/01 01:28:48;;;;;;;9.40;8.48;;;;;;;;;;5014348;28;20493;-48
2021/11/01 01:31:15;;;;;;;9.07;8.05;;;;;;;;;;5024056;28;20194;-48
2021/11/01 01:33:41;;;;;;;8.40;7.47;;;;;;;;;;5020385;28;20227;-48
2021/11/01 01:36:07;;;;;;;8.77;7.88;;;;;;;;;;5030464;28;20184;-48
2021/11/01 01:38:33;;;;;;;8.30;7.50;;;;;;;;;;5033974;28;20271;-48
2021/11/01 01:40:59;;;;;;;9.07;7.93;;;;;;;;;;5033826;28;20246;-48
2021/11/01 01:43:25;;;;;;;9.20;8.30;;;;;;;;;;5033647;28;20577;-48
2021/11/01 01:45:51;;;;;;;9.18;8.20;;;;;;;;;;5022793;28;20195;-48
2021/11/01 01:48:19;;;;;;;9.30;8.40;;;;;;;;;;5034174;28;20180;-48
2021/11/01 01:50:46;;;;;;;8.57;7.68;;;;;;;;;;5032734;28;20206;-48
2021/11/01 01:53:12;;;;;;;9.30;8.25;;;;;;;;;;5034462;28;20168;-48
2021/11/01 01:55:38;;;;;;;9.00;8.07;;;;;;;;;;5033632;28;20203;-48
2021/11/01 01:58:04;;;;;;;8.70;7.90;;;;;;;;;;5037766;28;20174;-48
2021/11/01 02:01:04;;;;;;;8.88;8.02;;;;;;;;;;5035879;28;20211;-48
2021/11/01 02:03:28;;;;;;;8.15;7.35;;;;;;;;;;5035898;28;20207;-48
2021/11/01 02:05:54;;;;;;;8.45;7.65;;;;;;;;;;5038976;28;20176;-48
2021/11/01 02:08:20;;;;;;;8.35;7.55;;;;;;;;;;5056023;28;20482;-50
2021/11/01 02:10:53;;;;;;;8.35;7.55;;;;;;;;;;5028024;28;20576;-48
2021/11/01 02:13:21;;;;;;;8.20;7.28;;;;;;;;;;5036890;28;20264;-48
2021/11/01 02:15:52;;;;;;;8.77;7.88;;;;;;;;;;5037359;28;20555;-48
2021/11/01 02:18:20;;;;;;;7.43;6.72;;;;;;;;;;5037540;28;20180;-48
2021/11/01 02:20:49;;;;;;;8.23;7.43;;;;;;;;;;5037325;28;20187;-48
2021/11/01 02:23:33;;;;;;;7.95;7.15;;;;;;;;;;5036694;28;20186;-48
2021/11/01 02:26:00;;;;;;;8.52;7.40;;;;;;;;;;5030928;28;20218;-48
2021/11/01 02:28:29;;;;;;;8.98;7.63;;;;;;;;;;5037130;28;20186;-48
2021/11/01 02:30:55;;;;;;;8.13;7.32;;;;;;;;;;5022358;28;20608;-48
2021/11/01 02:33:23;;;;;;;7.72;7.03;;;;;;;;;;5030799;28;20685;-48
2021/11/01 02:35:50;;;;;;;8.45;7.65;;;;;;;;;;5036225;28;20629;-48
2021/11/01 02:38:17;;;;;;;8.73;7.82;;;;;;;;;;5034201;28;20187;-48
2021/11/01 02:40:47;;;;;;;7.97;7.22;;;;;;;;;;5034191;28;20202;-48
2021/11/01 02:43:14;;;;;;;8.55;7.75;;;;;;;;;;5036673;28;20188;-48
2021/11/01 02:45:40;;;;;;;8.45;7.65;;;;;;;;;;5030121;28;20262;-48
2021/11/01 02:48:06;;;;;;;8.30;7.50;;;;;;;;;;5032587;28;20192;-48
2021/11/01 02:50:33;;;;;;;8.13;7.13;;;;;;;;;;5028981;28;20480;-48
2021/11/01 02:52:59;;;;;;;7.82;7.03;;;;;;;;;;5035761;28;20263;-48
2021/11/01 02:55:25;;;;;;;9.35;7.88;;;;;;;;;;5032516;28;20200;-48
2021/11/01 02:57:52;;;;;;;8.23;7.43;;;;;;;;;;5036759;28;20437;-48
2021/11/01 03:00:20;;;;;;;7.57;6.88;;;;;;;;;;5035834;28;20180;-48
2021/11/01 03:02:47;;;;;;;8.52;7.72;;;;;;;;;;5035440;28;20223;-49
2021/11/01 03:05:14;;;;;;;8.35;7.55;;;;;;;;;;5034410;28;20367;-48
2021/11/01 03:07:41;;;;;;;8.30;7.50;;;;;;;;;;5020220;28;20193;-48
2021/11/01 03:10:07;;;;;;;7.65;6.95;;;;;;;;;;5022845;28;20235;-48
2021/11/01 03:12:33;;;;;;;8.15;7.25;;;;;;;;;;5036509;28;20207;-48
2021/11/01 03:15:02;;;;;;;8.30;7.35;;;;;;;;;;5032270;28;20183;-48
2021/11/01 03:17:28;;;;;;;8.18;7.38;;;;;;;;;;5036376;28;20203;-48
2021/11/01 03:19:59;;;;;;;8.10;7.25;;;;;;;;;;5035655;28;20180;-48
2021/11/01 03:22:26;;;;;;;8.10;7.30;;;;;;;;;;5034093;28;20219;-48
2021/11/01 03:24:54;;;;;;;7.95;7.15;;;;;;;;;;5019276;28;20183;-48
2021/11/01 03:27:20;;;;;;;8.18;7.38;;;;;;;;;;5036521;28;20466;-48
2021/11/01 03:29:47;;;;;;;7.45;6.75;;;;;;;;;;5035491;28;20639;-48
2021/11/01 03:32:14;;;;;;;8.27;7.47;;;;;;;;;;5035845;28;20465;-48
2021/11/01 03:34:42;;;;;;;7.72;6.93;;;;;;;;;;5032942;28;20180;-48
2021/11/01 03:37:12;;;;;;;7.88;7.07;;;;;;;;;;5036351;28;20172;-48
2021/11/01 03:39:39;;;;;;;7.35;6.65;;;;;;;;;;5032600;28;20184;-48
2021/11/01 03:42:07;;;;;;;7.50;6.78;;;;;;;;;;5035800;28;20183;-48
2021/11/01 03:44:36;;;;;;;8.57;7.68;;;;;;;;;;5027035;28;20502;-48
2021/11/01 03:47:04;;;;;;;7.53;6.82;;;;;;;;;;5031770;28;20183;-48
2021/11/01 03:49:33;;;;;;;9.02;7.35;;;;;;;;;;5030825;28;20199;-48
2021/11/01 03:54:28;;;;;;;7.97;7.18;;;;;;;;;;5034450;28;20207;-48
2021/11/01 03:56:54;;;;;;;7.70;7.00;;;;;;;;;;5035239;28;20211;-48
2021/11/01 03:59:21;;;;;;;8.52;7.72;;;;;;;;;;5035256;28;20176;-48
2021/11/01 04:01:47;;;;;;;8.20;7.40;;;;;;;;;;5035148;28;20235;-48
2021/11/01 04:04:15;;;;;;;8.27;7.38;;;;;;;;;;5032540;28;20203;-48
2021/11/01 04:06:42;;;;;;;7.72;7.03;;;;;;;;;;5033300;28;20440;-48
2021/11/01 04:09:09;;;;;;;7.60;6.82;;;;;;;;;;5034945;28;20200;-48
2021/11/01 04:11:36;;;;;;;7.90;7.03;;;;;;;;;;5034717;28;20180;-48
2021/11/01 04:14:08;;;;;;;7.75;6.95;;;;;;;;;;5033909;28;20215;-48
2021/11/01 04:16:47;;;;;;;7.47;6.68;;;;;;;;;;5033252;28;20194;-48
2021/11/01 04:21:41;;;;;;;7.57;6.88;;;;;;;;;;5034876;28;20486;-48
2021/11/01 04:24:07;;;;;;;7.10;6.40;;;;;;;;;;5024705;28;20176;-48
2021/11/01 04:26:33;;;;;;;7.60;6.90;;;;;;;;;;5022808;28;20180;-48
2021/11/01 04:29:03;;;;;;;7.25;6.57;;;;;;;;;;5034025;28;20278;-48
2021/11/01 04:31:32;;;;;;;7.32;6.63;;;;;;;;;;5027904;28;20185;-48
2021/11/01 04:34:03;;;;;;;7.20;6.50;;;;;;;;;;5029831;28;20176;-48
2021/11/01 04:36:29;;;;;;;7.72;6.93;;;;;;;;;;5033399;28;20579;-48
2021/11/01 04:39:07;;;;;;;8.10;7.30;;;;;;;;;;5034894;28;20203;-48
2021/11/01 04:41:40;;;;;;;7.95;7.18;;;;;;;;;;5028309;28;20172;-48
2021/11/01 04:44:33;;;;;;;7.65;6.93;;;;;;;;;;5034414;28;20168;-48
2021/11/01 04:55:08;;;;;;;7.53;6.75;;;;;;;;;;5030116;28;20200;-48
2021/11/01 04:57:34;;;;;;;7.43;6.65;;;;;;;;;;5027192;28;20176;-48
2021/11/01 05:00:01;;;;;;;8.35;7.13;;;;;;;;;;5033737;28;20184;-47
2021/11/01 05:02:28;;;;;;;8.05;7.25;;;;;;;;;;5033066;28;20885;-48
2021/11/01 05:04:54;;;;;;;8.52;7.13;;;;;;;;;;5031817;28;20254;-48
2021/11/01 05:07:21;;;;;;;7.97;7.18;;;;;;;;;;5031640;28;20215;-48
2021/11/01 05:12:41;;;;;;;8.02;7.15;;;;;;;;;;5026348;28;20187;-47
2021/11/01 05:15:25;;;;;;;9.23;7.50;;;;;;;;;;5030775;28;20489;-48
2021/11/01 05:17:58;;;;;;;8.23;7.25;;;;;;;;;;5029637;28;20194;-47
2021/11/01 05:20:33;;;;;;;9.70;7.80;;;;;;;;;;5028271;28;20180;-47
2021/11/01 05:25:35;;;;;;;9.32;7.97;;;;;;;;;;5027832;28;20270;-48
2021/11/01 05:30:55;;;;;;;8.80;7.57;;;;;;;;;;5033839;28;20541;-48
2021/11/01 05:35:51;;;;;;;8.20;6.72;;;;;;;;;;5025065;28;20606;-48
2021/11/01 05:38:17;;;;;;;9.30;7.47;;;;;;;;;;5033491;28;20186;-47
2021/11/01 05:40:43;;;;;;;9.88;7.35;;;;;;;;;;5032540;28;20187;-47
2021/11/01 05:43:09;;;;;;;8.35;6.90;;;;;;;;;;5036350;28;20559;-47
2021/11/01 05:45:35;;;;;;;9.60;6.95;;;;;;;;;;5031285;28;20183;-48
2021/11/01 05:48:02;;;;;;;9.70;7.65;;;;;;;;;;5031661;28;20179;-47
2021/11/01 05:50:30;;;;;;;9.85;6.82;;;;;;;;;;5037873;28;20433;-47
2021/11/01 05:52:58;;;;;;;11.55;7.75;;;;;;;;;;5029316;28;20179;-47
2021/11/01 06:03:44;;;;;;;9.63;7.28;;;;;;;;;;5037162;28;20192;-47
2021/11/01 06:08:54;;;;;;;8.45;7.05;;;;;;;;;;5018381;28;20165;-48
2021/11/01 06:13:53;;;;;;;7.97;7.15;;;;;;;;;;5035546;28;20184;-47
2021/11/01 06:16:19;;;;;;;8.00;6.97;;;;;;;;;;5034487;28;20196;-48
2021/11/01 06:18:45;;;;;;;7.70;6.97;;;;;;;;;;5037128;28;20187;-47
2021/11/01 06:21:16;;;;;;;8.82;7.00;;;;;;;;;;5021608;28;20187;-47
2021/11/01 06:23:44;;;;;;;7.63;6.82;;;;;;;;;;5021348;28;20267;-47
2021/11/01 06:26:10;;;;;;;7.65;6.85;;;;;;;;;;5031711;28;20710;-48
2021/11/01 06:28:41;;;;;;;8.60;7.15;;;;;;;;;;5037570;28;20899;-48
2021/11/01 06:31:11;;;;;;;8.77;7.38;;;;;;;;;;5035179;28;20479;-48
2021/11/01 06:33:53;;;;;;;10.23;7.65;;;;;;;;;;5023135;28;20172;-48
2021/11/01 06:39:27;;;;;;;7.78;6.82;;;;;;;;;;5035810;28;20195;-48
2021/11/01 06:44:55;;;;;;;9.35;7.68;;;;;;;;;;5032492;28;20194;-48
2021/11/01 06:50:27;;;;;;;7.60;6.78;;;;;;;;;;5031896;28;20535;-47
2021/11/01 06:53:48;;;;;;;8.65;7.20;;;;;;;;;;5025179;28;20178;-47
2021/11/01 06:56:00;;;;;;;10.68;7.25;;;;;;;;;;5034230;28;20263;-47
2021/11/01 06:58:53;;;;;;;8.20;6.60;;;;;;;;;;5026541;28;20543;-47
2021/11/01 07:20:05;;;;;;;7.80;6.93;;;;;;;;;;5026359;28;20192;-47
2021/11/01 07:38:08;;;;;;;7.78;6.70;;;;;;;;;;5023814;28;20266;-48
2021/11/01 08:17:22;;;;;;;9.70;7.18;;;;;;;;;;5035864;28;20186;-48
2021/11/01 08:23:38;;;;;;;8.75;6.43;;;;;;;;;;5031390;28;20184;-47
2021/11/01 08:29:20;;;;;;;6.72;6.10;;;;;;;;;;5027997;28;20180;-48
2021/11/01 09:36:24;;;;;;;6.38;5.68;;;;;;;;;;5014677;28;20222;-47
2021/11/01 09:41:20;;;;;;;7.05;5.93;;;;;;;;;;5014825;28;20539;-47
2021/11/01 09:43:51;;;;;;;7.07;6.13;;;;;;;;;;5019471;28;20176;-47
2021/11/01 09:46:17;;;;;;;6.20;5.60;;;;;;;;;;5034217;28;20187;-47
2021/11/01 09:48:44;;;;;;;6.38;5.72;;;;;;;;;;5033623;28;20206;-47
2021/11/01 09:51:10;;;;;;;6.65;6.03;;;;;;;;;;5033740;28;20215;-48
2021/11/01 09:53:46;;;;;;;7.35;5.60;;;;;;;;;;5029219;28;20172;-48
2021/11/01 09:56:41;;;;;;;5.70;5.10;;;;;;;;;;5018787;28;20171;-48
2021/11/01 09:59:11;;;;;;;6.60;6.00;;;;;;;;;;5031822;28;20535;-48
2021/11/01 10:01:38;;;;;;;6.32;5.57;;;;;;;;;;5014274;28;20183;-48
2021/11/01 10:04:12;;;;;;;5.93;5.32;;;;;;;;;;5020912;28;20463;-48
2021/11/01 10:06:38;;;;;;;7.13;5.75;;;;;;;;;;5032631;28;20499;-47
2021/11/01 10:09:11;;;;;;;6.43;5.07;;;;;;;;;;5033100;28;20172;-47
2021/11/01 10:11:39;;;;;;;5.88;5.30;;;;;;;;;;5033603;28;20251;-47
2021/11/01 10:14:08;;;;;;;5.90;5.30;;;;;;;;;;5020437;28;20466;-47
2021/11/01 10:19:31;;;;;;;5.75;5.10;;;;;;;;;;5037605;28;20210;-48
2021/11/01 10:21:59;;;;;;;6.40;5.80;;;;;;;;;;5037724;28;20167;-47
2021/11/01 10:24:27;;;;;;;5.40;4.90;;;;;;;;;;5026180;28;20175;-47
2021/11/01 10:26:54;;;;;;;5.85;5.18;;;;;;;;;;5017719;28;20226;-47
2021/11/01 10:29:21;;;;;;;5.95;5.03;;;;;;;;;;5017783;28;20720;-47
2021/11/01 10:31:47;;;;;;;5.88;5.28;;;;;;;;;;5018065;28;20262;-48
2021/11/01 10:34:14;;;;;;;5.82;5.22;;;;;;;;;;5022399;28;20196;-47
2021/11/01 10:36:41;;;;;;;5.60;5.07;;;;;;;;;;5029509;28;20172;-47
2021/11/01 10:39:11;;;;;;;5.97;4.90;;;;;;;;;;5036802;28;20180;-48
2021/11/01 10:41:48;;;;;;;5.63;5.00;;;;;;;;;;5031039;28;20176;-47
2021/11/01 10:44:53;;;;;;;6.07;5.00;;;;;;;;;;5025163;28;20222;-47
2021/11/01 11:22:29;;;;;;;4.95;4.45;;;;;;;;;;5016891;28;20208;-47
2021/11/01 11:25:23;;;;;;;5.20;4.70;;;;;;;;;;5028059;28;20544;-47
2021/11/01 11:49:34;;;;;;;4.75;4.32;;;;;;;;;;5035667;28;20323;-47
2021/11/01 11:52:02;;;;;;;4.90;4.40;;;;;;;;;;5035917;28;20515;-47
2021/11/01 11:54:36;;;;;;;4.55;4.13;;;;;;;;;;5025024;28;20221;-47
2021/11/01 11:57:04;;;;;;;4.88;4.38;;;;;;;;;;5032792;28;20606;-47
2021/11/01 11:59:36;;;;;;;5.25;4.15;;;;;;;;;;5016150;28;20169;-47
2021/11/01 12:02:09;;;;;;;4.35;3.95;;;;;;;;;;5015770;28;20694;-47
2021/11/01 12:04:42;;;;;;;4.57;4.10;;;;;;;;;;5021917;28;20773;-47
2021/11/01 12:07:12;;;;;;;4.88;4.13;;;;;;;;;;5035495;28;20180;-47
2021/11/01 12:09:51;;;;;;;4.32;3.90;;;;;;;;;;5035054;28;20231;-47
2021/11/01 12:17:36;;;;;;;3.65;3.35;;;;;;;;;;5030172;28;20579;-47
2021/11/01 12:20:07;;;;;;;3.88;3.58;;;;;;;;;;5033935;28;20548;-47
2021/11/01 12:22:34;;;;;;;4.75;4.25;;;;;;;;;;5023222;28;20216;-47
2021/11/01 12:25:02;;;;;;;4.18;3.78;;;;;;;;;;5026299;28;20172;-47
2021/11/01 12:27:30;;;;;;;4.38;3.97;;;;;;;;;;5034740;28;20171;-48
2021/11/01 12:29:56;;;;;;;4.18;3.72;;;;;;;;;;5029766;28;20235;-47
2021/11/01 12:32:23;;;;;;;4.18;3.78;;;;;;;;;;5035259;28;20203;-47
2021/11/01 12:35:06;;;;;;;4.57;4.18;;;;;;;;;;5026070;28;20191;-47
2021/11/01 12:37:34;;;;;;;4.22;3.83;;;;;;;;;;5034316;28;20474;-47
2021/11/01 12:40:05;;;;;;;4.20;3.65;;;;;;;;;;5033608;28;20191;-47
2021/11/01 12:42:43;;;;;;;4.25;3.65;;;;;;;;;;5034985;28;20570;-47
2021/11/01 12:58:49;;;;;;;4.30;3.90;;;;;;;;;;5034770;28;20277;-47
2021/11/01 13:01:17;;;;;;;3.95;3.55;;;;;;;;;;5035019;28;20175;-47
2021/11/01 13:03:52;;;;;;;3.80;3.40;;;;;;;;;;5033286;28;20188;-47
2021/11/01 13:06:28;;;;;;;3.47;3.17;;;;;;;;;;5023546;28;20183;-47
2021/11/01 13:08:57;;;;;;;3.30;3.00;;;;;;;;;;5032407;28;20226;-47
2021/11/01 13:11:54;;;;;;;4.15;3.28;;;;;;;;;;5014995;28;20176;-47
2021/11/01 13:14:45;;;;;;;4.10;3.58;;;;;;;;;;5019611;28;20187;-47
2021/11/01 13:19:56;;;;;;;3.63;3.33;;;;;;;;;;5026066;28;20278;-47
2021/11/01 13:22:28;;;;;;;3.03;2.83;;;;;;;;;;5015061;28;20545;-47
2021/11/01 13:27:41;;;;;;;3.55;3.25;;;;;;;;;;5034427;28;20443;-47
2021/11/01 13:38:44;;;;;;;3.55;3.25;;;;;;;;;;5032769;28;20175;-47
2021/11/01 13:41:13;;;;;;;3.38;3.08;;;;;;;;;;5019627;28;20254;-47
2021/11/01 13:43:39;;;;;;;3.35;3.05;;;;;;;;;;5022132;28;20192;-47
2021/11/01 13:46:05;;;;;;;3.15;2.85;;;;;;;;;;5019828;28;20211;-47
2021/11/01 13:48:32;;;;;;;3.50;3.20;;;;;;;;;;5035019;28;20222;-47
2021/11/01 13:51:03;;;;;;;2.92;2.70;;;;;;;;;;5032401;28;20215;-47
2021/11/01 13:53:33;;;;;;;3.20;2.90;;;;;;;;;;5018184;28;20257;-47
2021/11/01 13:56:16;;;;;;;3.05;2.75;;;;;;;;;;5036188;28;20171;-47
2021/11/01 13:58:53;;;;;;;3.22;2.92;;;;;;;;;;5028044;28;20199;-47
2021/11/01 14:12:13;;;;;;;2.88;2.63;;;;;;;;;;5037599;28;20186;-47
2021/11/01 14:14:45;;;;;;;2.80;2.60;;;;;;;;;;5036566;28;20248;-47
2021/11/01 14:33:29;;;;;;;3.75;2.95;;;;;;;;;;5018318;28;20169;-47
2021/11/01 15:16:10;;;;;;;2.50;2.30;;;;;;;;;;5022271;28;20177;-47
2021/11/01 15:29:40;;;;;;;5.25;2.90;;;;;;;;;;5033833;28;20183;-47
2021/11/01 15:32:45;;;;;;;4.82;2.70;;;;;;;;;;5035712;28;20211;-47
2021/11/01 15:40:29;;;;;;;5.00;2.78;;;;;;;;;;5025328;28;20483;-47
2021/11/01 16:18:10;;;;;;;4.32;2.83;;;;;;;;;;5032294;28;20200;-47
2021/11/01 16:20:36;;;;;;;2.95;2.40;;;;;;;;;;5020697;28;20226;-47
2021/11/01 16:23:24;;;;;;;3.03;2.63;;;;;;;;;;5025292;28;20256;-47
2021/11/01 16:25:56;;;;;;;2.95;2.65;;;;;;;;;;5021581;28;20180;-47
2021/11/01 16:28:24;;;;;;;3.38;2.30;;;;;;;;;;5021348;28;20180;-47
2021/11/01 16:31:24;;;;;;;2.47;2.28;;;;;;;;;;5034495;28;20261;-47
2021/11/01 16:33:44;;;;;;;3.35;2.40;;;;;;;;;;5032739;28;20191;-47
2021/11/01 16:36:21;;;;;;;2.42;2.22;;;;;;;;;;5018687;28;20541;-47
2021/11/01 16:38:53;;;;;;;2.78;2.30;;;;;;;;;;5015543;28;20169;-47
2021/11/01 16:41:23;;;;;;;2.50;2.28;;;;;;;;;;5019399;28;20551;-47
2021/11/01 16:43:49;;;;;;;2.55;2.20;;;;;;;;;;5034567;28;20186;-47
2021/11/01 16:46:16;;;;;;;2.92;2.60;;;;;;;;;;5028681;28;20286;-47
2021/11/01 16:48:45;;;;;;;2.38;2.17;;;;;;;;;;5034807;28;20602;-47
2021/11/01 16:51:12;;;;;;;3.83;2.50;;;;;;;;;;5018441;28;20245;-47
2021/11/01 16:53:48;;;;;;;2.70;2.50;;;;;;;;;;5034525;28;20172;-47
2021/11/01 16:59:09;;;;;;;2.28;2.08;;;;;;;;;;5033839;28;20190;-47
2021/11/01 17:01:38;;;;;;;2.40;2.20;;;;;;;;;;5015056;28;20234;-47
2021/11/01 17:04:09;;;;;;;2.70;2.42;;;;;;;;;;5027408;28;20293;-47
2021/11/01 17:30:38;;;;;;;3.05;2.30;;;;;;;;;;5025635;28;20235;-47
2021/11/01 17:36:17;;;;;;;2.33;2.10;;;;;;;;;;5028179;28;20241;-47
2021/11/01 18:24:55;;;;;;;2.47;2.22;;;;;;;;;;5032002;28;20230;-47
2021/11/01 18:39:59;;;;;;;2.50;2.30;;;;;;;;;;5017892;28;20766;-47
2021/11/01 18:42:41;;;;;;;2.40;1.98;;;;;;;;;;5027412;28;20498;-47
2021/11/01 18:45:17;;;;;;;2.00;1.80;;;;;;;;;;5032046;28;20172;-47
2021/11/01 18:50:53;;;;;;;2.55;1.83;;;;;;;;;;5035010;28;20210;-47
2021/11/01 18:53:25;;;;;;;1.77;1.67;;;;;;;;;;5023641;28;20655;-47
2021/11/01 18:55:53;;;;;;;2.17;1.98;;;;;;;;;;5027631;28;20508;-47
2021/11/01 18:58:22;;;;;;;2.20;2.00;;;;;;;;;;5035454;28;20459;-47
2021/11/01 19:00:49;;;;;;;2.17;1.95;;;;;;;;;;5037149;28;20385;-47
2021/11/01 19:03:17;;;;;;;1.95;1.83;;;;;;;;;;5036101;28;20280;-47
2021/11/01 19:05:49;;;;;;;2.75;2.08;;;;;;;;;;5025320;28;20559;-47
2021/11/01 20:06:29;;;;;;;4.82;2.30;;;;;;;;;;5030704;28;20547;-48
2021/11/01 21:26:20;;;;;;;4.20;1.90;;;;;;;;;;5030413;28;20186;-47
2021/11/01 21:28:46;;;;;;;4.75;2.28;;;;;;;;;;5033134;28;20194;-47
2021/11/01 21:31:13;;;;;;;3.75;1.90;;;;;;;;;;5033045;28;20211;-47
2021/11/01 21:33:39;;;;;;;2.63;2.00;;;;;;;;;;5023668;28;20437;-47
2021/11/01 21:36:10;;;;;;;3.22;2.25;;;;;;;;;;5032475;28;20176;-48
2021/11/01 21:38:36;;;;;;;4.43;2.13;;;;;;;;;;5033702;28;20252;-47
2021/11/01 21:41:03;;;;;;;2.72;2.10;;;;;;;;;;5033975;28;20263;-47
2021/11/01 21:43:29;;;;;;;3.30;2.08;;;;;;;;;;5024550;28;20192;-48
2021/11/01 21:45:55;;;;;;;3.70;2.33;;;;;;;;;;5023847;28;20202;-47
2021/11/01 21:48:23;;;;;;;3.00;1.73;;;;;;;;;;5033474;28;20195;-47
2021/11/01 21:50:49;;;;;;;3.47;2.17;;;;;;;;;;5030515;28;20199;-47
2021/11/01 21:53:19;;;;;;;3.75;2.00;;;;;;;;;;5030259;28;20238;-47
2021/11/01 21:55:45;;;;;;;3.78;2.35;;;;;;;;;;5023572;28;20168;-47
2021/11/01 21:58:23;;;;;;;2.30;2.10;;;;;;;;;;5033519;28;20474;-47
2021/11/01 22:01:23;;;;;;;2.53;1.80;;;;;;;;;;5031435;28;20546;-47
2021/11/01 22:09:57;;;;;;;2.67;1.88;;;;;;;;;;5022112;28;20184;-48
2021/11/01 22:10:01;;;;;;;2.60;1.80;;;;;;;;;;5030826;28;20385;-47
2021/11/01 22:20:45;;;;;;;1.90;1.70;;;;;;;;;;5033536;28;20420;-47
2021/11/01 22:23:16;;;;;;;2.28;1.80;;;;;;;;;;5033730;28;20180;-47
2021/11/01 22:25:49;;;;;;;3.03;1.73;;;;;;;;;;5027115;28;20226;-47
2021/11/01 22:33:59;;;;;;;1.77;1.60;;;;;;;;;;5023521;28;20270;-47
2021/11/01 22:44:41;;;;;;;1.70;1.48;;;;;;;;;;5035022;28;20191;-47
2021/11/01 22:55:40;;;;;;;1.73;1.60;;;;;;;;;;5035346;28;20263;-48
2021/11/01 22:58:07;;;;;;;3.03;1.83;;;;;;;;;;5035822;28;20179;-47
2021/11/01 23:00:41;;;;;;;1.95;1.60;;;;;;;;;;5033192;28;20490;-47
2021/11/01 23:03:14;;;;;;;1.67;1.58;;;;;;;;;;5035769;28;20202;-47
2021/11/01 23:33:08;;;;;;;1.77;1.50;;;;;;;;;;5035477;28;20226;-48
2021/11/01 23:35:34;;;;;;;1.50;1.40;;;;;;;;;;5028861;28;20182;-48
2021/11/01 23:38:01;;;;;;;2.22;1.50;;;;;;;;;;5034540;28;20168;-47
2021/11/01 23:40:27;;;;;;;2.90;1.30;;;;;;;;;;5016926;28;20506;-48
2021/11/01 23:42:53;;;;;;;1.52;1.42;;;;;;;;;;5033766;28;20194;-48
2021/11/01 23:45:19;;;;;;;1.88;1.40;;;;;;;;;;5035451;28;20172;-47
2021/11/01 23:47:45;;;;;;;1.98;1.55;;;;;;;;;;5035804;28;20190;-47
2021/11/01 23:50:11;;;;;;;1.50;1.35;;;;;;;;;;5036052;28;20303;-47
2021/11/01 23:52:40;;;;;;;2.55;1.30;;;;;;;;;;5035478;28;20428;-47
2021/11/01 23:55:07;;;;;;;1.33;1.17;;;;;;;;;;5034057;28;20214;-48
2021/11/01 23:57:33;;;;;;;1.70;1.42;;;;;;;;;;5036086;28;20168;-47
2021/11/01 23:59:59;;;;;;;1.60;1.38;;;;;;;;;;5035842;28;20437;-48
